MDT,Max TemperatureF,Mean TemperatureF,Min TemperatureF,Max Dew PointF,MeanDew PointF,Min DewpointF,Max Humidity, Mean Humidity, Min Humidity, Max Sea Level PressureIn, Mean Sea Level PressureIn, Min Sea Level PressureIn, Max VisibilityMiles, Mean VisibilityMiles, Min VisibilityMiles, Max Wind SpeedMPH, Mean Wind SpeedMPH, Max Gust SpeedMPH,PrecipitationIn, CloudCover, Events, WindDirDegrees
2013-10-1,63,51,38,34,27,16,56,43,30,29.98,29.89,29.81,10,10,10,14,4,21,0.00,0,,171
2013-10-2,61,52,43,36,32,28,65,50,35,29.95,29.89,29.78,10,10,10,16,8,22,T,2,,26
2013-10-3,44,38,31,37,34,30,100,84,67,30.00,29.93,29.86,10,5,0,24,16,36,0.52,8,Fog-Rain-Snow,46
2013-10-4,32,29,25,30,25,21,100,92,83,30.11,29.99,29.91,2,1,0,25,18,50,0.89,8,Fog-Snow,7
2013-10-5,42,33,23,24,18,12,78,54,30,30.19,30.08,29.95,10,6,0,24,8,37,0.19,3,Fog-Snow,315
2013-10-6,57,46,35,34,30,23,70,53,36,30.17,30.12,30.07,10,10,10,15,6,24,0.00,0,,317
2013-10-7,62,47,31,33,28,25,75,50,25,30.08,29.94,29.77,10,10,10,15,6,20,0.00,0,,263
2013-10-8,63,50,37,35,31,27,79,53,27,29.84,29.73,29.66,10,10,10,12,5,18,0.00,1,,266
2013-10-9,49,42,35,33,29,26,82,64,45,30.04,29.96,29.82,10,10,10,21,9,29,0.00,2,,32
2013-10-10,54,43,32,45,40,29,100,83,66,29.94,29.72,29.44,10,8,0,17,5,24,0.06,3,Fog-Rain,49
2013-10-11,45,38,30,45,35,24,100,79,57,30.01,29.56,29.30,10,7,0,31,15,47,1.23,5,Fog-Rain,331
2013-10-12,47,37,27,31,26,22,85,63,41,30.25,30.16,30.02,10,9,2,14,6,17,0.06,3,Rain-Snow,330
2013-10-13,50,39,28,39,34,27,100,81,61,30.24,30.13,29.94,10,10,10,12,4,18,0.01,4,Rain,88
2013-10-14,43,36,29,42,33,21,100,85,69,30.11,29.91,29.81,10,7,1,18,8,30,0.49,8,Rain-Snow,356
2013-10-15,35,31,26,25,22,19,75,68,61,30.28,30.20,30.08,10,9,2,20,7,35,0.01,6,Snow,339
2013-10-16,51,37,22,24,18,8,81,50,19,30.19,30.04,29.94,10,10,10,14,4,20,0.00,0,,286
2013-10-17,38,31,24,27,19,14,81,61,40,30.15,30.07,29.96,10,10,10,15,5,22,T,2,,322
2013-10-18,35,29,22,23,21,16,92,72,51,30.17,30.09,30.00,10,9,2,20,9,28,T,6,Snow,286
2013-10-19,52,43,33,28,25,23,64,51,38,29.98,29.88,29.78,10,10,10,22,11,31,0.00,1,,287
2013-10-20,43,36,29,32,27,21,82,65,48,30.06,29.92,29.78,10,10,7,16,8,25,T,5,Rain-Snow,299
2013-10-21,47,37,26,36,31,23,92,75,58,30.09,30.01,29.98,10,10,8,20,11,31,T,5,Rain-Snow,288
2013-10-22,51,44,36,34,33,31,79,65,50,30.11,30.05,30.00,10,10,10,17,8,24,0.00,5,,295
2013-10-23,52,44,35,36,31,27,92,68,44,30.23,30.10,29.98,10,10,8,16,7,23,0.00,6,,309
2013-10-24,51,40,28,36,33,28,100,73,46,30.28,30.24,30.20,10,6,0,13,4,20,0.00,6,Fog,231
2013-10-25,66,48,29,40,33,25,100,63,26,30.23,30.12,30.00,10,10,8,10,4,14,0.00,0,,291
2013-10-26,57,43,29,29,23,14,57,44,30,30.24,30.14,29.96,10,10,10,18,4,25,0.00,0,,259
2013-10-27,60,44,27,33,27,22,100,63,26,30.06,29.91,29.73,10,9,1,24,9,32,0.00,2,,58
2013-10-28,27,24,20,28,21,18,100,94,88,30.27,30.15,30.02,10,2,0,22,13,31,0.04,8,Fog-Snow,59
2013-10-29,29,25,20,28,23,18,100,96,91,30.24,30.05,29.90,10,4,0,10,2,13,0.00,8,Fog,55
2013-10-30,41,33,25,34,28,24,100,85,70,29.98,29.83,29.72,10,6,0,15,6,21,0.06,8,Fog-Snow,274
2013-10-31,42,36,29,31,25,21,89,69,48,29.75,29.71,29.66,10,10,7,23,11,33,T,3,Snow,294